createdAt,value
2022-10-15T00:01:09.979Z,16.30
2022-10-15T00:03:41.858Z,16.30
2022-10-15T00:06:15.098Z,16.20
2022-10-15T00:08:42.659Z,16.50
2022-10-15T00:11:19.167Z,16.30
2022-10-15T00:13:46.687Z,16.40
2022-10-15T00:16:20.612Z,16.30
2022-10-15T00:18:48.117Z,16.50
2022-10-15T00:21:17.205Z,16.50
2022-10-15T00:23:45.363Z,16.50
2022-10-15T00:26:16.574Z,16.40
2022-10-15T00:28:43.343Z,16.50
2022-10-15T00:31:14.320Z,16.40
2022-10-15T00:33:41.401Z,16.40
2022-10-15T00:36:15.107Z,16.60
2022-10-15T00:38:42.526Z,16.40
2022-10-15T00:41:16.492Z,16.60
2022-10-15T00:43:50.521Z,16.40
2022-10-15T00:46:33.700Z,16.50
2022-10-15T00:49:15.502Z,16.50
2022-10-15T00:51:49.432Z,16.80
2022-10-15T00:54:16.487Z,16.60
2022-10-15T00:56:45.641Z,16.60
2022-10-15T00:59:14.314Z,16.40
2022-10-15T01:01:41.621Z,16.60
2022-10-15T01:04:08.598Z,16.50
2022-10-15T01:06:36.824Z,16.40
2022-10-15T01:09:04.171Z,16.30
2022-10-15T01:11:45.043Z,16.30
2022-10-15T01:14:47.312Z,16.40
2022-10-15T01:17:38.279Z,16.40
2022-10-15T01:20:50.495Z,16.40
2022-10-15T01:23:35.663Z,16.60
2022-10-15T01:26:41.744Z,16.30
2022-10-15T01:29:48.315Z,16.50
2022-10-15T01:32:29.323Z,16.40
2022-10-15T01:35:18.787Z,16.40
2022-10-15T01:37:59.822Z,16.80
2022-10-15T01:40:59.035Z,16.60
2022-10-15T01:44:07.551Z,16.50
2022-10-15T01:50:38.274Z,16.50
2022-10-15T01:53:37.342Z,16.40
2022-10-15T01:56:38.805Z,16.50
2022-10-15T01:59:40.241Z,16.40
2022-10-15T02:02:06.994Z,16.40
2022-10-15T02:05:00.744Z,16.50
2022-10-15T02:07:57.264Z,16.60
2022-10-15T02:10:49.816Z,16.40
2022-10-15T02:13:49.338Z,16.40
2022-10-15T02:16:46.503Z,16.60
2022-10-15T02:19:22.107Z,16.60
2022-10-15T02:22:01.790Z,16.50
2022-10-15T02:24:35.375Z,16.30
2022-10-15T02:27:03.578Z,16.40
2022-10-15T02:29:33.458Z,16.50
2022-10-15T02:32:02.179Z,16.50
2022-10-15T02:34:32.822Z,16.50
2022-10-15T02:37:03.182Z,16.40
2022-10-15T02:39:30.110Z,16.30
2022-10-15T02:41:58.024Z,16.30
2022-10-15T02:44:24.859Z,16.40
2022-10-15T02:46:51.626Z,16.40
2022-10-15T02:49:18.424Z,16.50
2022-10-15T02:51:45.156Z,16.60
2022-10-15T02:54:11.895Z,16.50
2022-10-15T02:56:39.424Z,16.50
2022-10-15T02:59:07.069Z,16.40
2022-10-15T03:01:34.831Z,16.30
2022-10-15T03:04:02.130Z,16.30
2022-10-15T03:06:29.006Z,16.30
2022-10-15T03:08:55.833Z,16.80
2022-10-15T03:11:22.562Z,16.40
2022-10-15T03:13:49.367Z,16.40
2022-10-15T03:16:16.098Z,16.70
2022-10-15T03:18:42.848Z,16.60
2022-10-15T03:21:09.834Z,17.00
2022-10-15T03:23:36.612Z,16.50
2022-10-15T03:26:03.450Z,16.40
2022-10-15T03:28:30.347Z,16.50
2022-10-15T03:30:57.158Z,16.50
2022-10-15T03:33:25.240Z,16.10
2022-10-15T03:35:52.766Z,16.70
2022-10-15T03:38:19.830Z,16.30
2022-10-15T03:40:46.680Z,16.30
2022-10-15T03:43:13.456Z,16.40
2022-10-15T03:45:40.252Z,16.30
2022-10-15T03:48:07.059Z,16.30
2022-10-15T03:50:33.953Z,16.60
2022-10-15T03:53:04.400Z,16.30
2022-10-15T03:55:31.372Z,16.30
2022-10-15T03:57:58.339Z,16.20
2022-10-15T04:00:25.471Z,16.30
2022-10-15T04:02:52.214Z,16.30
2022-10-15T04:05:18.956Z,16.00
2022-10-15T04:07:45.712Z,16.00
2022-10-15T04:10:12.452Z,16.00
2022-10-15T04:12:39.207Z,16.10
2022-10-15T04:15:06.725Z,16.20
2022-10-15T04:17:33.523Z,16.20
2022-10-15T04:20:00.302Z,16.00
2022-10-15T04:22:27.260Z,16.50
2022-10-15T04:24:54.043Z,16.20
2022-10-15T04:27:20.781Z,16.20
2022-10-15T04:29:49.091Z,16.10
2022-10-15T04:32:16.949Z,16.20
2022-10-15T04:34:45.624Z,16.10
2022-10-15T04:37:12.388Z,16.10
2022-10-15T04:39:39.150Z,16.20
2022-10-15T04:42:05.916Z,16.00
2022-10-15T04:44:32.816Z,16.40
2022-10-15T04:46:59.568Z,16.30
2022-10-15T04:49:26.707Z,16.20
2022-10-15T04:51:53.498Z,16.30
2022-10-15T04:54:20.272Z,16.10
2022-10-15T04:56:47.062Z,16.50
2022-10-15T04:59:13.811Z,16.40
2022-10-15T05:01:40.546Z,16.70
2022-10-15T05:04:07.327Z,16.40
2022-10-15T05:06:34.819Z,16.20
2022-10-15T05:09:02.079Z,16.10
2022-10-15T05:11:29.370Z,16.10
2022-10-15T05:13:58.128Z,16.20
2022-10-15T05:16:28.976Z,16.50
2022-10-15T05:19:00.893Z,16.30
2022-10-15T05:21:29.141Z,16.20
2022-10-15T05:23:55.877Z,16.70
2022-10-15T05:26:26.516Z,16.60
2022-10-15T05:28:53.421Z,16.70
2022-10-15T05:31:22.952Z,17.10
2022-10-15T05:33:52.440Z,16.30
2022-10-15T05:36:25.880Z,16.10
2022-10-15T05:39:01.817Z,16.30
2022-10-15T05:41:29.946Z,16.20
2022-10-15T05:43:58.379Z,15.90
2022-10-15T05:46:25.884Z,15.90
2022-10-15T05:48:57.839Z,15.90
2022-10-15T05:51:27.540Z,15.90
2022-10-15T05:53:56.285Z,15.90
2022-10-15T05:56:24.050Z,16.20
2022-10-15T05:58:51.795Z,16.00
2022-10-15T06:01:18.957Z,16.10
2022-10-15T06:03:45.820Z,16.10
2022-10-15T06:06:21.217Z,16.20
2022-10-15T06:08:48.835Z,16.00
2022-10-15T06:11:17.096Z,15.90
2022-10-15T06:13:45.403Z,15.90
2022-10-15T06:16:16.598Z,15.90
2022-10-15T06:18:46.265Z,15.90
2022-10-15T06:21:13.578Z,15.90
2022-10-15T06:23:40.354Z,16.10
2022-10-15T06:26:09.675Z,15.80
2022-10-15T06:28:39.847Z,16.10
2022-10-15T06:31:07.987Z,15.90
2022-10-15T06:33:35.594Z,15.90
2022-10-15T06:36:04.830Z,15.90
2022-10-15T06:38:32.457Z,15.60
2022-10-15T06:40:59.415Z,15.80
2022-10-15T06:43:28.750Z,15.70
2022-10-15T06:45:59.468Z,15.90
2022-10-15T06:48:26.296Z,15.80
2022-10-15T06:50:53.078Z,16.10
2022-10-15T06:53:19.853Z,15.90
2022-10-15T06:55:46.599Z,15.80
2022-10-15T06:58:13.390Z,16.00
2022-10-15T07:00:40.186Z,16.10
2022-10-15T07:03:07.680Z,16.00
2022-10-15T07:05:35.607Z,16.20
2022-10-15T07:08:02.398Z,16.40
2022-10-15T07:10:29.846Z,16.10
2022-10-15T07:12:59.601Z,16.10
2022-10-15T07:15:26.634Z,16.40
2022-10-15T07:17:56.792Z,16.00
2022-10-15T07:20:24.466Z,16.10
2022-10-15T07:22:56.447Z,16.20
2022-10-15T07:25:23.200Z,16.30
2022-10-15T07:27:49.947Z,16.40
2022-10-15T07:30:17.074Z,16.50
2022-10-15T07:32:46.342Z,16.50
2022-10-15T07:35:13.488Z,16.30
2022-10-15T07:37:40.819Z,16.60
2022-10-15T07:40:08.167Z,16.40
2022-10-15T07:42:34.999Z,16.50
2022-10-15T07:45:01.802Z,16.20
2022-10-15T07:47:28.518Z,16.40
2022-10-15T07:49:55.279Z,16.40
2022-10-15T07:52:22.486Z,16.50
2022-10-15T07:54:49.501Z,16.60
2022-10-15T07:57:17.877Z,16.40
2022-10-15T07:59:44.819Z,16.60
2022-10-15T08:02:21.653Z,16.90
2022-10-15T08:04:48.584Z,16.80
2022-10-15T08:07:15.512Z,16.60
2022-10-15T08:09:42.351Z,16.70
2022-10-15T08:12:09.269Z,16.70
2022-10-15T08:14:36.710Z,16.70
2022-10-15T08:17:05.725Z,16.60
2022-10-15T08:19:33.053Z,16.70
2022-10-15T08:21:59.820Z,16.60
2022-10-15T08:24:26.590Z,16.70
2022-10-15T08:26:53.381Z,16.60
2022-10-15T08:29:20.158Z,16.80
2022-10-15T08:31:46.891Z,16.90
2022-10-15T08:34:13.624Z,16.70
2022-10-15T08:36:40.353Z,16.50
2022-10-15T08:39:09.088Z,16.60
2022-10-15T08:41:57.294Z,16.90
2022-10-15T08:44:27.297Z,16.80
2022-10-15T08:47:25.195Z,16.70
2022-10-15T08:49:59.030Z,16.70
2022-10-15T08:52:45.149Z,16.80
2022-10-15T08:55:18.887Z,17.30
2022-10-15T08:58:08.051Z,16.90
2022-10-15T09:00:51.369Z,16.80
2022-10-15T09:03:47.284Z,16.80
2022-10-15T09:06:30.982Z,17.00
2022-10-15T09:09:21.728Z,16.90
2022-10-15T09:12:17.503Z,16.70
2022-10-15T09:14:46.457Z,16.80
2022-10-15T09:17:25.824Z,16.70
2022-10-15T09:19:57.589Z,16.80
2022-10-15T09:22:32.001Z,16.60
2022-10-15T09:24:59.101Z,16.90
2022-10-15T09:27:36.301Z,17.00
2022-10-15T09:30:18.352Z,17.10
2022-10-15T09:32:57.936Z,17.10
2022-10-15T09:35:45.974Z,16.90
2022-10-15T09:38:55.199Z,17.20
2022-10-15T09:42:30.580Z,16.90
2022-10-15T09:45:03.737Z,16.90
2022-10-15T09:47:34.348Z,17.00
2022-10-15T09:50:05.661Z,17.00
2022-10-15T09:52:38.054Z,17.20
2022-10-15T09:55:35.522Z,17.00
2022-10-15T09:58:37.564Z,16.90
2022-10-15T10:01:07.675Z,17.10
2022-10-15T10:03:36.819Z,17.20
2022-10-15T10:06:10.767Z,16.90
2022-10-15T10:08:56.304Z,16.90
2022-10-15T10:11:25.784Z,17.40
2022-10-15T10:13:57.058Z,17.00
2022-10-15T10:16:24.570Z,17.10
2022-10-15T10:19:15.441Z,17.10
2022-10-15T10:21:44.005Z,17.20
2022-10-15T10:24:31.899Z,17.40
2022-10-15T10:27:00.948Z,17.20
2022-10-15T10:29:34.759Z,17.10
2022-10-15T10:32:27.188Z,17.60
2022-10-15T10:34:54.873Z,17.50
2022-10-15T10:37:22.538Z,17.80
2022-10-15T10:39:59.624Z,17.80
2022-10-15T10:42:32.075Z,17.90
2022-10-15T10:45:18.819Z,17.60
2022-10-15T10:47:45.913Z,17.60
2022-10-15T10:50:40.494Z,17.20
2022-10-15T10:53:24.442Z,17.50
2022-10-15T10:55:54.090Z,17.70
2022-10-15T10:58:26.407Z,17.60
2022-10-15T11:00:55.429Z,17.60
2022-10-15T11:03:38.740Z,17.70
2022-10-15T11:06:58.899Z,17.80
2022-10-15T11:09:56.495Z,17.90
2022-10-15T11:16:00.499Z,17.80
2022-10-15T11:19:13.642Z,17.70
2022-10-15T11:22:23.899Z,17.80
2022-10-15T11:25:06.960Z,17.90
2022-10-15T11:28:05.869Z,17.80
2022-10-15T11:31:10.833Z,18.20
2022-10-15T11:34:25.968Z,17.60
2022-10-15T11:37:29.644Z,17.80
2022-10-15T11:40:35.383Z,17.90
2022-10-15T11:43:25.356Z,17.90
2022-10-15T11:46:53.173Z,17.70
2022-10-15T11:49:47.154Z,18.20
2022-10-15T11:54:02.607Z,18.30
2022-10-15T11:58:12.856Z,17.70
2022-10-15T12:01:30.317Z,17.90
2022-10-15T12:04:32.870Z,17.50
2022-10-15T12:15:30.521Z,17.10
2022-10-15T12:21:42.613Z,17.10
2022-10-15T12:24:51.567Z,17.10
2022-10-15T12:27:30.705Z,17.30
2022-10-15T12:30:00.468Z,17.10
2022-10-15T12:32:37.928Z,17.20
2022-10-15T12:35:32.199Z,17.30
2022-10-15T12:38:31.501Z,17.40
2022-10-15T12:41:06.576Z,17.70
2022-10-15T12:43:37.770Z,17.20
2022-10-15T12:46:08.107Z,17.40
2022-10-15T12:48:39.822Z,17.70
2022-10-15T12:51:21.998Z,17.60
2022-10-15T12:53:58.331Z,17.60
2022-10-15T12:56:40.045Z,17.90
2022-10-15T12:59:56.445Z,17.90
2022-10-15T13:05:34.740Z,18.00
2022-10-15T13:08:05.388Z,17.70
2022-10-15T13:10:52.192Z,17.80
2022-10-15T13:13:31.120Z,17.50
2022-10-15T13:16:01.966Z,17.60
2022-10-15T13:18:31.216Z,17.80
2022-10-15T13:20:59.261Z,18.00
2022-10-15T13:23:33.533Z,17.60
2022-10-15T13:26:27.150Z,17.70
2022-10-15T13:28:58.149Z,17.80
2022-10-15T13:31:35.088Z,17.70
2022-10-15T13:34:21.470Z,17.70
2022-10-15T13:36:48.627Z,17.70
2022-10-15T13:39:35.544Z,17.70
2022-10-15T13:42:23.500Z,17.60
2022-10-15T13:45:16.958Z,17.70
2022-10-15T13:47:50.824Z,17.70
2022-10-15T13:50:34.702Z,17.80
2022-10-15T13:53:22.811Z,18.10
2022-10-15T13:55:56.912Z,17.90
2022-10-15T13:58:34.656Z,18.00
2022-10-15T14:01:21.125Z,17.80
2022-10-15T14:04:00.041Z,17.90
2022-10-15T14:06:34.750Z,17.80
2022-10-15T14:09:19.099Z,17.90
2022-10-15T14:11:47.123Z,18.10
2022-10-15T14:14:45.890Z,18.00
2022-10-15T14:17:27.153Z,18.30
2022-10-15T14:20:26.314Z,18.30
2022-10-15T14:22:52.860Z,18.50
2022-10-15T14:25:26.514Z,18.20
2022-10-15T14:27:53.507Z,18.30
2022-10-15T14:30:36.614Z,18.00
2022-10-15T14:33:03.973Z,18.30
2022-10-15T14:35:37.379Z,18.20
2022-10-15T14:38:14.164Z,18.10
2022-10-15T14:40:40.941Z,18.00
2022-10-15T14:43:18.257Z,18.50
2022-10-15T14:45:50.810Z,18.20
2022-10-15T14:48:32.885Z,18.40
2022-10-15T14:51:06.554Z,18.20
2022-10-15T14:53:49.705Z,18.40
2022-10-15T14:56:42.041Z,18.10
2022-10-15T14:59:38.138Z,18.50
2022-10-15T15:02:18.738Z,18.20
2022-10-15T15:05:28.516Z,18.20
2022-10-15T15:07:57.399Z,18.30
2022-10-15T15:10:26.147Z,18.20
2022-10-15T15:12:56.576Z,18.30
2022-10-15T15:15:26.312Z,18.20
2022-10-15T15:17:53.359Z,18.50
2022-10-15T15:20:21.219Z,18.70
2022-10-15T15:22:50.791Z,18.20
2022-10-15T15:25:34.435Z,18.90
2022-10-15T15:28:02.126Z,18.20
2022-10-15T15:30:32.703Z,18.10
2022-10-15T15:33:00.643Z,18.00
2022-10-15T15:35:39.268Z,18.10
2022-10-15T15:38:09.015Z,18.30
2022-10-15T15:40:36.490Z,18.70
2022-10-15T15:43:04.541Z,18.10
2022-10-15T15:45:31.353Z,18.10
2022-10-15T15:48:01.988Z,18.10
2022-10-15T15:50:29.292Z,18.10
2022-10-15T15:52:56.377Z,18.20
2022-10-15T15:55:24.004Z,18.40
2022-10-15T15:57:51.248Z,18.40
2022-10-15T16:00:18.838Z,17.90
2022-10-15T16:02:45.919Z,18.00
2022-10-15T16:05:16.318Z,18.20
2022-10-15T16:08:01.915Z,18.10
2022-10-15T16:14:10.359Z,17.80
2022-10-15T16:17:01.600Z,17.70
2022-10-15T16:19:34.283Z,17.70
2022-10-15T16:22:17.946Z,17.50
2022-10-15T16:25:07.204Z,17.50
2022-10-15T16:27:53.864Z,17.40
2022-10-15T16:30:31.419Z,17.20
2022-10-15T16:36:07.058Z,17.30
2022-10-15T16:39:12.353Z,17.30
2022-10-15T16:45:14.781Z,17.80
2022-10-15T16:54:38.810Z,17.80
2022-10-15T16:57:05.846Z,17.80
2022-10-15T16:59:32.751Z,17.90
2022-10-15T17:02:01.183Z,18.00
2022-10-15T17:04:28.118Z,18.20
2022-10-15T17:06:54.871Z,17.80
2022-10-15T17:09:23.506Z,18.30
2022-10-15T17:11:50.288Z,18.00
2022-10-15T17:14:20.630Z,18.60
2022-10-15T17:16:51.171Z,18.50
2022-10-15T17:19:23.375Z,18.50
2022-10-15T17:21:50.776Z,18.30
2022-10-15T17:24:19.202Z,18.30
2022-10-15T17:26:47.698Z,18.30
2022-10-15T17:29:24.735Z,18.20
2022-10-15T17:31:53.317Z,18.00
2022-10-15T17:34:21.525Z,17.90
2022-10-15T17:36:49.250Z,17.70
2022-10-15T17:39:22.397Z,18.40
2022-10-15T17:41:51.427Z,17.90
2022-10-15T17:44:18.418Z,18.20
2022-10-15T17:46:45.336Z,17.80
2022-10-15T17:49:15.042Z,17.80
2022-10-15T17:51:41.872Z,18.30
2022-10-15T17:54:08.678Z,17.90
2022-10-15T17:56:39.171Z,18.60
2022-10-15T17:59:09.120Z,18.30
2022-10-15T18:01:57.944Z,18.30
2022-10-15T18:04:25.674Z,18.40
2022-10-15T18:06:52.410Z,18.30
2022-10-15T18:09:19.146Z,18.10
2022-10-15T18:11:46.091Z,18.60
2022-10-15T18:14:12.910Z,18.00
2022-10-15T18:16:39.656Z,18.80
2022-10-15T18:19:06.902Z,18.70
2022-10-15T18:21:33.713Z,18.60
2022-10-15T18:24:00.809Z,18.50
2022-10-15T18:26:27.546Z,18.00
2022-10-15T18:28:54.778Z,18.40
2022-10-15T18:31:22.660Z,17.90
2022-10-15T18:33:52.523Z,18.70
2022-10-15T18:36:26.596Z,18.30
2022-10-15T18:38:55.731Z,18.50
2022-10-15T18:41:29.238Z,17.80
2022-10-15T18:43:59.765Z,18.10
2022-10-15T18:46:30.747Z,17.80
2022-10-15T18:48:57.608Z,17.60
2022-10-15T18:51:27.518Z,18.00
2022-10-15T18:53:54.871Z,18.60
2022-10-15T18:56:22.642Z,18.40
2022-10-15T18:58:49.949Z,18.50
2022-10-15T19:01:24.888Z,18.30
2022-10-15T19:03:52.760Z,18.80
2022-10-15T19:06:21.143Z,18.90
2022-10-15T19:08:48.584Z,18.70
2022-10-15T19:11:17.006Z,18.10
2022-10-15T19:13:43.779Z,18.40
2022-10-15T19:16:11.427Z,19.00
2022-10-15T19:18:38.317Z,18.50
2022-10-15T19:21:06.046Z,18.50
2022-10-15T19:23:34.611Z,18.50
2022-10-15T19:26:01.975Z,19.00
2022-10-15T19:28:29.180Z,19.20
2022-10-15T19:31:02.332Z,18.70
2022-10-15T19:33:31.211Z,18.80
2022-10-15T19:35:58.073Z,18.80
2022-10-15T19:38:25.906Z,18.90
2022-10-15T19:40:53.983Z,18.90
2022-10-15T19:43:22.748Z,19.20
2022-10-15T19:45:49.897Z,19.40
2022-10-15T19:48:19.705Z,19.40
2022-10-15T19:50:47.356Z,19.30
2022-10-15T19:53:16.702Z,18.90
2022-10-15T19:55:54.987Z,19.20
2022-10-15T19:58:21.927Z,19.20
2022-10-15T20:00:50.028Z,19.20
2022-10-15T20:03:16.814Z,18.90
2022-10-15T20:05:45.085Z,19.00
2022-10-15T20:08:12.765Z,19.00
2022-10-15T20:10:44.595Z,19.10
2022-10-15T20:13:12.301Z,18.80
2022-10-15T20:15:44.188Z,19.40
2022-10-15T20:18:12.589Z,19.50
2022-10-15T20:20:43.031Z,19.60
2022-10-15T20:23:10.780Z,19.70
2022-10-15T20:25:38.105Z,19.00
2022-10-15T20:28:05.510Z,19.00
2022-10-15T20:30:32.339Z,19.20
2022-10-15T20:32:59.074Z,19.00
2022-10-15T20:35:25.803Z,19.00
2022-10-15T20:37:52.547Z,18.70
2022-10-15T20:40:19.375Z,19.10
2022-10-15T20:42:46.172Z,19.30
2022-10-15T20:45:16.566Z,19.40
2022-10-15T20:47:48.961Z,18.90
2022-10-15T20:50:27.668Z,19.20
2022-10-15T20:52:56.419Z,19.70
2022-10-15T20:55:23.768Z,19.80
2022-10-15T20:57:50.771Z,19.90
2022-10-15T21:00:17.635Z,19.40
2022-10-15T21:02:44.396Z,19.70
2022-10-15T21:05:11.542Z,19.60
2022-10-15T21:07:38.305Z,19.80
2022-10-15T21:10:05.681Z,19.40
2022-10-15T21:12:32.395Z,19.70
2022-10-15T21:14:59.148Z,19.50
2022-10-15T21:17:26.278Z,19.80
2022-10-15T21:19:53.264Z,20.00
2022-10-15T21:22:20.372Z,20.00
2022-10-15T21:24:47.106Z,19.70
2022-10-15T21:29:42.797Z,20.00
2022-10-15T21:32:09.715Z,20.00
2022-10-15T21:34:36.512Z,20.00
2022-10-15T21:37:03.321Z,20.00
2022-10-15T21:39:30.162Z,19.80
2022-10-15T21:41:57.666Z,20.00
2022-10-15T21:44:24.419Z,20.00
2022-10-15T21:46:51.206Z,20.00
2022-10-15T21:49:17.953Z,20.00
2022-10-15T21:51:44.723Z,20.00
2022-10-15T21:54:11.670Z,20.00
2022-10-15T21:56:38.539Z,20.20
2022-10-15T21:59:05.280Z,20.30
2022-10-15T22:01:37.584Z,20.30
2022-10-15T22:04:08.368Z,20.20
2022-10-15T22:06:36.367Z,20.20
2022-10-15T22:09:04.646Z,19.80
2022-10-15T22:11:39.960Z,20.00
2022-10-15T22:14:13.780Z,19.90
2022-10-15T22:16:41.292Z,20.10
2022-10-15T22:19:10.343Z,20.40
2022-10-15T22:21:38.486Z,20.40
2022-10-15T22:24:18.424Z,20.40
2022-10-15T22:26:51.810Z,20.40
2022-10-15T22:29:33.019Z,20.20
2022-10-15T22:32:03.453Z,20.00
2022-10-15T22:34:30.508Z,19.80
2022-10-15T22:36:57.259Z,19.90
2022-10-15T22:39:24.021Z,19.90
2022-10-15T22:41:50.739Z,19.90
2022-10-15T22:44:20.403Z,19.80
2022-10-15T22:46:49.340Z,19.70
2022-10-15T22:49:19.738Z,19.50
2022-10-15T22:51:47.367Z,19.40
2022-10-15T22:54:16.868Z,19.30
2022-10-15T22:56:43.663Z,19.20
2022-10-15T22:59:11.131Z,19.20
2022-10-15T23:01:38.113Z,19.10
2022-10-15T23:04:07.049Z,19.00
2022-10-15T23:06:36.805Z,19.00
2022-10-15T23:09:06.163Z,19.00
2022-10-15T23:11:36.097Z,19.20
2022-10-15T23:14:07.647Z,19.30
2022-10-15T23:16:37.786Z,19.20
2022-10-15T23:19:16.743Z,19.30
2022-10-15T23:21:52.998Z,19.40
2022-10-15T23:24:22.664Z,19.50
2022-10-15T23:26:50.310Z,19.60
2022-10-15T23:29:21.328Z,19.40
2022-10-15T23:31:48.988Z,19.60
2022-10-15T23:34:22.495Z,19.70
2022-10-15T23:36:49.817Z,19.80
2022-10-15T23:39:23.402Z,19.60
2022-10-15T23:41:50.497Z,19.80
2022-10-15T23:44:17.534Z,19.70
2022-10-15T23:46:44.644Z,19.10
2022-10-15T23:49:11.857Z,19.60
2022-10-15T23:51:39.271Z,19.60
2022-10-15T23:54:17.739Z,19.70
2022-10-15T23:56:46.354Z,19.50
2022-10-15T23:59:13.523Z,19.50
